Skip Navigation LinksHome page > Weather > Current weather Skip Navigation Links

Current Weather

Indira Gandhi Intl Apt, New Delhi, India

For information only: do not use for flight planning or navigation.
Latest weather
Observation time Saturday, August 19, 2017 10:00 AM IST
Local time Saturday, August 19, 2017 10:47 AM IST
Flight conditions Instrument Meteorological Conditions
Winds
Wind direction South (170°)
Wind speed 2 mph
Visibility 1.3 mi.
Present weather drizzle
Sky condition
Ceiling 8,000 ft. overcast
Cloud layer scattered clouds 3,000 ft.
Cloud layer few clouds with cumulonimbus 3,500 ft.
Cloud layer overcast 8,000 ft.
Temperature 81°F
Dewpoint 79°F
Altimeter 29.71 in.Hg
Derived measurements
Relative humidity 94%
Heat index 88°F
Density altitude 2841 ft.
Remarks
No significant changes expected in the next two hours.
METAR VIDP 190430Z 17002KT 2100 DZ SCT030 FEW035CB OVC080 27/26 Q1006 NOSIG

Settings

Location code

InnerDrive.Weather 4.0.6144.1 Release CLR 4.0.30319.36366
Copyright ©2015 Inner Drive Technology. All rights reserved. Portions Copyright ©1986-2015 David Braverman.

Find weather

Site navigation


Skip Navigation Links

Place info

Page info

PayPal - The safer, easier way to pay online!

Return home.

Copyright ©2017 Inner Drive Technology. Purveyors of fine, hand-crafted computer software. Page printed 2017-08-19T05:17:17 UTC.